sensor_id;sensor_type;location;lat;lon;timestamp;P1;durP1;ratioP1;P2;durP2;ratioP2
43744;SDS011;29359;53.048;8.732;2022-12-16T00:00:25;29.20;;;16.23;;
43744;SDS011;29359;53.048;8.732;2022-12-16T00:02:27;30.55;;;16.23;;
43744;SDS011;29359;53.048;8.732;2022-12-16T00:04:29;29.27;;;16.20;;
43744;SDS011;29359;53.048;8.732;2022-12-16T00:06:32;27.73;;;16.50;;
43744;SDS011;29359;53.048;8.732;2022-12-16T00:08:35;29.35;;;17.98;;
43744;SDS011;29359;53.048;8.732;2022-12-16T00:10:38;42.60;;;23.25;;
43744;SDS011;29359;53.048;8.732;2022-12-16T00:12:55;38.67;;;20.98;;
43744;SDS011;29359;53.048;8.732;2022-12-16T00:14:56;32.33;;;17.77;;
43744;SDS011;29359;53.048;8.732;2022-12-16T00:16:58;27.90;;;16.52;;
43744;SDS011;29359;53.048;8.732;2022-12-16T00:18:59;27.05;;;16.88;;
43744;SDS011;29359;53.048;8.732;2022-12-16T00:21:01;25.38;;;15.40;;
43744;SDS011;29359;53.048;8.732;2022-12-16T00:23:03;23.15;;;14.85;;
43744;SDS011;29359;53.048;8.732;2022-12-16T00:25:05;26.23;;;16.15;;
43744;SDS011;29359;53.048;8.732;2022-12-16T00:27:07;24.85;;;15.25;;
43744;SDS011;29359;53.048;8.732;2022-12-16T00:29:08;33.78;;;16.92;;
43744;SDS011;29359;53.048;8.732;2022-12-16T00:31:11;24.95;;;16.80;;
43744;SDS011;29359;53.048;8.732;2022-12-16T00:33:13;28.58;;;16.67;;
43744;SDS011;29359;53.048;8.732;2022-12-16T00:35:14;26.17;;;16.35;;
43744;SDS011;29359;53.048;8.732;2022-12-16T00:37:16;26.25;;;16.05;;
43744;SDS011;29359;53.048;8.732;2022-12-16T00:39:17;27.52;;;15.88;;
43744;SDS011;29359;53.048;8.732;2022-12-16T00:41:19;25.52;;;15.73;;
43744;SDS011;29359;53.048;8.732;2022-12-16T00:43:21;26.23;;;15.35;;
43744;SDS011;29359;53.048;8.732;2022-12-16T00:45:22;26.48;;;15.63;;
43744;SDS011;29359;53.048;8.732;2022-12-16T00:47:24;28.88;;;15.55;;
43744;SDS011;29359;53.048;8.732;2022-12-16T00:49:25;25.02;;;14.63;;
43744;SDS011;29359;53.048;8.732;2022-12-16T00:51:27;26.63;;;15.20;;
43744;SDS011;29359;53.048;8.732;2022-12-16T00:53:28;27.95;;;14.95;;
43744;SDS011;29359;53.048;8.732;2022-12-16T00:55:30;21.52;;;15.00;;
43744;SDS011;29359;53.048;8.732;2022-12-16T00:57:32;23.83;;;14.63;;
43744;SDS011;29359;53.048;8.732;2022-12-16T00:59:34;23.85;;;14.52;;
43744;SDS011;29359;53.048;8.732;2022-12-16T01:01:35;23.90;;;15.38;;
43744;SDS011;29359;53.048;8.732;2022-12-16T01:03:37;21.52;;;14.80;;
43744;SDS011;29359;53.048;8.732;2022-12-16T01:05:39;29.35;;;16.10;;
43744;SDS011;29359;53.048;8.732;2022-12-16T01:07:41;21.50;;;14.40;;
43744;SDS011;29359;53.048;8.732;2022-12-16T01:09:43;26.77;;;14.65;;
43744;SDS011;29359;53.048;8.732;2022-12-16T01:11:45;27.55;;;15.45;;
43744;SDS011;29359;53.048;8.732;2022-12-16T01:13:48;26.33;;;15.55;;
43744;SDS011;29359;53.048;8.732;2022-12-16T01:15:52;26.77;;;14.85;;
43744;SDS011;29359;53.048;8.732;2022-12-16T01:17:54;22.80;;;14.68;;
43744;SDS011;29359;53.048;8.732;2022-12-16T01:19:55;26.77;;;14.63;;
43744;SDS011;29359;53.048;8.732;2022-12-16T01:21:57;23.75;;;14.80;;
43744;SDS011;29359;53.048;8.732;2022-12-16T01:23:58;23.80;;;14.02;;
43744;SDS011;29359;53.048;8.732;2022-12-16T01:26:00;23.33;;;14.45;;
43744;SDS011;29359;53.048;8.732;2022-12-16T01:28:02;24.75;;;14.35;;
43744;SDS011;29359;53.048;8.732;2022-12-16T01:30:04;24.67;;;14.93;;
43744;SDS011;29359;53.048;8.732;2022-12-16T01:32:07;25.00;;;15.05;;
43744;SDS011;29359;53.048;8.732;2022-12-16T01:34:10;23.20;;;14.68;;
43744;SDS011;29359;53.048;8.732;2022-12-16T01:36:11;21.83;;;14.10;;
43744;SDS011;29359;53.048;8.732;2022-12-16T01:38:13;26.58;;;14.90;;
43744;SDS011;29359;53.048;8.732;2022-12-16T01:40:16;29.90;;;14.85;;
43744;SDS011;29359;53.048;8.732;2022-12-16T01:42:20;23.20;;;15.07;;
43744;SDS011;29359;53.048;8.732;2022-12-16T01:44:23;22.85;;;14.38;;
43744;SDS011;29359;53.048;8.732;2022-12-16T01:46:26;22.05;;;14.32;;
43744;SDS011;29359;53.048;8.732;2022-12-16T01:48:31;24.35;;;14.85;;
43744;SDS011;29359;53.048;8.732;2022-12-16T01:50:38;22.30;;;14.70;;
43744;SDS011;29359;53.048;8.732;2022-12-16T01:52:41;24.95;;;15.25;;
43744;SDS011;29359;53.048;8.732;2022-12-16T01:54:49;30.73;;;15.30;;
43744;SDS011;29359;53.048;8.732;2022-12-16T01:57:03;25.00;;;15.35;;
43744;SDS011;29359;53.048;8.732;2022-12-16T01:59:10;24.55;;;14.82;;
43744;SDS011;29359;53.048;8.732;2022-12-16T02:01:16;23.08;;;15.05;;
43744;SDS011;29359;53.048;8.732;2022-12-16T02:03:18;25.63;;;15.18;;
43744;SDS011;29359;53.048;8.732;2022-12-16T02:05:20;24.00;;;14.98;;
43744;SDS011;29359;53.048;8.732;2022-12-16T02:07:22;21.45;;;14.43;;
43744;SDS011;29359;53.048;8.732;2022-12-16T02:09:25;23.92;;;15.65;;
43744;SDS011;29359;53.048;8.732;2022-12-16T02:11:32;24.00;;;15.07;;
43744;SDS011;29359;53.048;8.732;2022-12-16T02:18:26;22.48;;;14.38;;
43744;SDS011;29359;53.048;8.732;2022-12-16T02:25:32;23.30;;;14.73;;
43744;SDS011;29359;53.048;8.732;2022-12-16T02:32:36;21.35;;;14.23;;
43744;SDS011;29359;53.048;8.732;2022-12-16T02:34:54;24.30;;;14.57;;
43744;SDS011;29359;53.048;8.732;2022-12-16T02:37:16;23.90;;;14.82;;
43744;SDS011;29359;53.048;8.732;2022-12-16T02:41:41;27.27;;;14.23;;
43744;SDS011;29359;53.048;8.732;2022-12-16T02:43:52;27.38;;;15.10;;
43744;SDS011;29359;53.048;8.732;2022-12-16T02:45:57;23.00;;;13.65;;
43744;SDS011;29359;53.048;8.732;2022-12-16T02:47:59;21.90;;;13.85;;
43744;SDS011;29359;53.048;8.732;2022-12-16T02:50:01;20.88;;;14.20;;
43744;SDS011;29359;53.048;8.732;2022-12-16T02:52:03;24.88;;;13.82;;
43744;SDS011;29359;53.048;8.732;2022-12-16T02:54:05;27.55;;;14.50;;
43744;SDS011;29359;53.048;8.732;2022-12-16T02:58:21;23.35;;;13.80;;
43744;SDS011;29359;53.048;8.732;2022-12-16T03:00:23;21.05;;;13.35;;
43744;SDS011;29359;53.048;8.732;2022-12-16T03:04:59;23.23;;;14.70;;
43744;SDS011;29359;53.048;8.732;2022-12-16T03:07:06;31.95;;;14.88;;
43744;SDS011;29359;53.048;8.732;2022-12-16T03:09:13;20.65;;;14.02;;
43744;SDS011;29359;53.048;8.732;2022-12-16T03:11:21;24.35;;;14.52;;
43744;SDS011;29359;53.048;8.732;2022-12-16T03:13:26;25.02;;;15.07;;
43744;SDS011;29359;53.048;8.732;2022-12-16T03:15:33;23.38;;;14.13;;
43744;SDS011;29359;53.048;8.732;2022-12-16T03:17:36;23.55;;;14.50;;
43744;SDS011;29359;53.048;8.732;2022-12-16T03:19:40;26.30;;;14.38;;
43744;SDS011;29359;53.048;8.732;2022-12-16T03:22:03;22.85;;;14.75;;
43744;SDS011;29359;53.048;8.732;2022-12-16T03:24:09;25.50;;;14.45;;
43744;SDS011;29359;53.048;8.732;2022-12-16T03:26:24;24.70;;;14.85;;
43744;SDS011;29359;53.048;8.732;2022-12-16T03:28:34;31.15;;;16.08;;
43744;SDS011;29359;53.048;8.732;2022-12-16T03:31:01;25.25;;;14.43;;
43744;SDS011;29359;53.048;8.732;2022-12-16T03:33:15;22.95;;;14.25;;
43744;SDS011;29359;53.048;8.732;2022-12-16T03:35:29;23.83;;;14.90;;
43744;SDS011;29359;53.048;8.732;2022-12-16T03:37:35;23.95;;;14.65;;
43744;SDS011;29359;53.048;8.732;2022-12-16T03:39:43;27.63;;;14.82;;
43744;SDS011;29359;53.048;8.732;2022-12-16T03:41:50;24.15;;;15.05;;
43744;SDS011;29359;53.048;8.732;2022-12-16T03:43:54;20.83;;;15.02;;
43744;SDS011;29359;53.048;8.732;2022-12-16T03:45:57;22.10;;;14.43;;
43744;SDS011;29359;53.048;8.732;2022-12-16T03:48:06;24.48;;;15.77;;
43744;SDS011;29359;53.048;8.732;2022-12-16T03:50:11;25.33;;;15.40;;
43744;SDS011;29359;53.048;8.732;2022-12-16T03:52:12;22.85;;;15.43;;
43744;SDS011;29359;53.048;8.732;2022-12-16T03:54:14;22.88;;;15.02;;
43744;SDS011;29359;53.048;8.732;2022-12-16T03:56:15;25.15;;;14.45;;
43744;SDS011;29359;53.048;8.732;2022-12-16T03:58:18;27.48;;;16.35;;
43744;SDS011;29359;53.048;8.732;2022-12-16T04:00:19;26.17;;;16.75;;
43744;SDS011;29359;53.048;8.732;2022-12-16T04:02:21;28.42;;;17.08;;
43744;SDS011;29359;53.048;8.732;2022-12-16T04:04:23;24.85;;;15.55;;
43744;SDS011;29359;53.048;8.732;2022-12-16T04:06:25;30.85;;;17.25;;
43744;SDS011;29359;53.048;8.732;2022-12-16T04:08:26;29.27;;;16.73;;
43744;SDS011;29359;53.048;8.732;2022-12-16T04:10:28;26.48;;;16.30;;
43744;SDS011;29359;53.048;8.732;2022-12-16T04:12:48;22.35;;;15.52;;
43744;SDS011;29359;53.048;8.732;2022-12-16T04:15:08;28.27;;;16.13;;
43744;SDS011;29359;53.048;8.732;2022-12-16T04:17:29;27.95;;;16.00;;
43744;SDS011;29359;53.048;8.732;2022-12-16T04:19:48;25.05;;;16.73;;
43744;SDS011;29359;53.048;8.732;2022-12-16T04:22:12;26.92;;;15.40;;
43744;SDS011;29359;53.048;8.732;2022-12-16T04:24:36;28.40;;;16.25;;
43744;SDS011;29359;53.048;8.732;2022-12-16T04:26:38;27.40;;;16.23;;
43744;SDS011;29359;53.048;8.732;2022-12-16T04:28:58;27.27;;;16.27;;
43744;SDS011;29359;53.048;8.732;2022-12-16T04:30:59;30.02;;;16.95;;
43744;SDS011;29359;53.048;8.732;2022-12-16T04:33:02;31.80;;;17.67;;
43744;SDS011;29359;53.048;8.732;2022-12-16T04:35:25;26.45;;;16.65;;
43744;SDS011;29359;53.048;8.732;2022-12-16T04:37:45;25.45;;;16.25;;
43744;SDS011;29359;53.048;8.732;2022-12-16T04:40:05;24.00;;;15.70;;
43744;SDS011;29359;53.048;8.732;2022-12-16T04:42:26;29.58;;;15.02;;
43744;SDS011;29359;53.048;8.732;2022-12-16T04:44:45;33.00;;;18.23;;
43744;SDS011;29359;53.048;8.732;2022-12-16T04:47:06;24.95;;;15.80;;
43744;SDS011;29359;53.048;8.732;2022-12-16T04:49:25;25.60;;;16.55;;
43744;SDS011;29359;53.048;8.732;2022-12-16T04:51:46;26.95;;;16.30;;
43744;SDS011;29359;53.048;8.732;2022-12-16T04:54:06;26.08;;;16.10;;
43744;SDS011;29359;53.048;8.732;2022-12-16T04:56:25;27.83;;;17.48;;
43744;SDS011;29359;53.048;8.732;2022-12-16T04:58:45;30.13;;;16.42;;
43744;SDS011;29359;53.048;8.732;2022-12-16T05:01:05;25.40;;;16.65;;
43744;SDS011;29359;53.048;8.732;2022-12-16T05:03:26;27.83;;;16.77;;
43744;SDS011;29359;53.048;8.732;2022-12-16T05:05:46;31.80;;;16.70;;
43744;SDS011;29359;53.048;8.732;2022-12-16T05:08:06;31.58;;;18.13;;
43744;SDS011;29359;53.048;8.732;2022-12-16T05:10:26;32.33;;;16.75;;
43744;SDS011;29359;53.048;8.732;2022-12-16T05:12:46;31.15;;;16.95;;
43744;SDS011;29359;53.048;8.732;2022-12-16T05:15:06;26.75;;;16.52;;
43744;SDS011;29359;53.048;8.732;2022-12-16T05:17:26;26.67;;;16.30;;
43744;SDS011;29359;53.048;8.732;2022-12-16T05:19:46;27.30;;;15.95;;
43744;SDS011;29359;53.048;8.732;2022-12-16T05:22:07;27.98;;;15.68;;
43744;SDS011;29359;53.048;8.732;2022-12-16T05:24:27;30.50;;;16.30;;
43744;SDS011;29359;53.048;8.732;2022-12-16T05:26:53;27.35;;;16.23;;
43744;SDS011;29359;53.048;8.732;2022-12-16T05:29:12;24.85;;;16.20;;
43744;SDS011;29359;53.048;8.732;2022-12-16T05:31:32;28.30;;;17.13;;
43744;SDS011;29359;53.048;8.732;2022-12-16T05:33:52;26.88;;;15.35;;
43744;SDS011;29359;53.048;8.732;2022-12-16T05:36:12;29.55;;;16.42;;
43744;SDS011;29359;53.048;8.732;2022-12-16T05:38:32;29.70;;;15.93;;
43744;SDS011;29359;53.048;8.732;2022-12-16T05:40:52;28.27;;;16.27;;
43744;SDS011;29359;53.048;8.732;2022-12-16T05:43:12;25.67;;;15.60;;
43744;SDS011;29359;53.048;8.732;2022-12-16T05:45:33;26.90;;;15.93;;
43744;SDS011;29359;53.048;8.732;2022-12-16T05:47:54;27.45;;;16.90;;
43744;SDS011;29359;53.048;8.732;2022-12-16T05:50:13;26.17;;;16.33;;
43744;SDS011;29359;53.048;8.732;2022-12-16T05:52:34;25.33;;;15.50;;
43744;SDS011;29359;53.048;8.732;2022-12-16T05:54:54;25.83;;;15.38;;
43744;SDS011;29359;53.048;8.732;2022-12-16T05:57:14;27.83;;;16.20;;
43744;SDS011;29359;53.048;8.732;2022-12-16T05:59:34;29.67;;;16.33;;
43744;SDS011;29359;53.048;8.732;2022-12-16T06:01:53;29.65;;;16.23;;
43744;SDS011;29359;53.048;8.732;2022-12-16T06:04:13;25.20;;;15.82;;
43744;SDS011;29359;53.048;8.732;2022-12-16T06:06:41;25.50;;;15.50;;
43744;SDS011;29359;53.048;8.732;2022-12-16T06:09:01;23.00;;;15.35;;
43744;SDS011;29359;53.048;8.732;2022-12-16T06:11:22;24.00;;;14.73;;
43744;SDS011;29359;53.048;8.732;2022-12-16T06:13:42;26.58;;;17.02;;
43744;SDS011;29359;53.048;8.732;2022-12-16T06:16:02;26.02;;;15.25;;
43744;SDS011;29359;53.048;8.732;2022-12-16T06:18:21;22.58;;;14.95;;
43744;SDS011;29359;53.048;8.732;2022-12-16T06:20:41;24.98;;;15.38;;
43744;SDS011;29359;53.048;8.732;2022-12-16T06:23:02;23.83;;;14.63;;
43744;SDS011;29359;53.048;8.732;2022-12-16T06:25:25;24.17;;;15.13;;
43744;SDS011;29359;53.048;8.732;2022-12-16T06:27:49;29.50;;;15.50;;
43744;SDS011;29359;53.048;8.732;2022-12-16T06:30:11;25.63;;;15.27;;
43744;SDS011;29359;53.048;8.732;2022-12-16T06:32:31;24.42;;;15.50;;
43744;SDS011;29359;53.048;8.732;2022-12-16T06:34:51;25.80;;;15.45;;
43744;SDS011;29359;53.048;8.732;2022-12-16T06:37:11;24.70;;;14.00;;
43744;SDS011;29359;53.048;8.732;2022-12-16T06:39:31;34.28;;;16.15;;
43744;SDS011;29359;53.048;8.732;2022-12-16T06:41:53;35.83;;;16.08;;
43744;SDS011;29359;53.048;8.732;2022-12-16T06:44:13;30.23;;;15.88;;
43744;SDS011;29359;53.048;8.732;2022-12-16T06:46:33;27.02;;;15.38;;
43744;SDS011;29359;53.048;8.732;2022-12-16T06:48:52;26.65;;;14.50;;
43744;SDS011;29359;53.048;8.732;2022-12-16T06:51:12;25.88;;;15.48;;
43744;SDS011;29359;53.048;8.732;2022-12-16T06:53:32;27.67;;;15.93;;
43744;SDS011;29359;53.048;8.732;2022-12-16T06:55:52;26.75;;;15.02;;
43744;SDS011;29359;53.048;8.732;2022-12-16T06:58:12;34.78;;;18.60;;
43744;SDS011;29359;53.048;8.732;2022-12-16T07:00:33;29.05;;;15.35;;
43744;SDS011;29359;53.048;8.732;2022-12-16T07:02:52;34.55;;;16.20;;
43744;SDS011;29359;53.048;8.732;2022-12-16T07:05:12;38.28;;;16.70;;
43744;SDS011;29359;53.048;8.732;2022-12-16T07:07:33;38.70;;;17.25;;
43744;SDS011;29359;53.048;8.732;2022-12-16T07:09:52;45.20;;;17.08;;
43744;SDS011;29359;53.048;8.732;2022-12-16T07:12:12;50.65;;;18.58;;
43744;SDS011;29359;53.048;8.732;2022-12-16T07:14:32;45.72;;;18.10;;
43744;SDS011;29359;53.048;8.732;2022-12-16T07:16:52;53.10;;;17.75;;
43744;SDS011;29359;53.048;8.732;2022-12-16T07:19:17;56.53;;;19.83;;
43744;SDS011;29359;53.048;8.732;2022-12-16T07:21:37;55.47;;;19.23;;
43744;SDS011;29359;53.048;8.732;2022-12-16T07:23:57;56.22;;;19.15;;
43744;SDS011;29359;53.048;8.732;2022-12-16T07:26:17;56.17;;;20.05;;
43744;SDS011;29359;53.048;8.732;2022-12-16T07:28:37;51.78;;;18.65;;
43744;SDS011;29359;53.048;8.732;2022-12-16T07:30:57;59.80;;;18.65;;
43744;SDS011;29359;53.048;8.732;2022-12-16T07:33:18;68.03;;;20.90;;
43744;SDS011;29359;53.048;8.732;2022-12-16T07:35:41;61.90;;;19.60;;
43744;SDS011;29359;53.048;8.732;2022-12-16T07:38:01;59.25;;;19.08;;
43744;SDS011;29359;53.048;8.732;2022-12-16T07:40:21;73.38;;;19.60;;
43744;SDS011;29359;53.048;8.732;2022-12-16T07:42:41;78.15;;;20.45;;
43744;SDS011;29359;53.048;8.732;2022-12-16T07:45:04;67.50;;;20.65;;
43744;SDS011;29359;53.048;8.732;2022-12-16T07:47:25;62.50;;;20.42;;
43744;SDS011;29359;53.048;8.732;2022-12-16T07:49:45;44.67;;;18.08;;
43744;SDS011;29359;53.048;8.732;2022-12-16T07:52:05;54.53;;;18.33;;
43744;SDS011;29359;53.048;8.732;2022-12-16T07:54:24;52.05;;;18.08;;
43744;SDS011;29359;53.048;8.732;2022-12-16T07:56:45;54.15;;;20.13;;
43744;SDS011;29359;53.048;8.732;2022-12-16T07:59:04;57.28;;;20.05;;
43744;SDS011;29359;53.048;8.732;2022-12-16T08:01:24;51.85;;;20.20;;
43744;SDS011;29359;53.048;8.732;2022-12-16T08:03:44;56.03;;;21.27;;
43744;SDS011;29359;53.048;8.732;2022-12-16T08:06:05;59.67;;;21.13;;
43744;SDS011;29359;53.048;8.732;2022-12-16T08:08:25;57.38;;;20.98;;
43744;SDS011;29359;53.048;8.732;2022-12-16T08:10:45;61.28;;;21.73;;
43744;SDS011;29359;53.048;8.732;2022-12-16T08:13:05;61.97;;;22.95;;
43744;SDS011;29359;53.048;8.732;2022-12-16T08:15:32;65.93;;;22.98;;
43744;SDS011;29359;53.048;8.732;2022-12-16T08:17:53;57.33;;;22.13;;
43744;SDS011;29359;53.048;8.732;2022-12-16T08:20:12;60.47;;;22.02;;
43744;SDS011;29359;53.048;8.732;2022-12-16T08:22:33;62.30;;;23.25;;
43744;SDS011;29359;53.048;8.732;2022-12-16T08:24:55;72.57;;;23.40;;
43744;SDS011;29359;53.048;8.732;2022-12-16T08:27:15;72.10;;;23.83;;
43744;SDS011;29359;53.048;8.732;2022-12-16T08:29:35;77.28;;;24.52;;
43744;SDS011;29359;53.048;8.732;2022-12-16T08:31:55;88.90;;;26.42;;
43744;SDS011;29359;53.048;8.732;2022-12-16T08:34:15;73.40;;;26.13;;
43744;SDS011;29359;53.048;8.732;2022-12-16T08:36:35;72.90;;;25.83;;
43744;SDS011;29359;53.048;8.732;2022-12-16T08:38:55;95.18;;;27.45;;
43744;SDS011;29359;53.048;8.732;2022-12-16T08:41:15;86.75;;;28.92;;
43744;SDS011;29359;53.048;8.732;2022-12-16T08:43:35;78.18;;;27.60;;
43744;SDS011;29359;53.048;8.732;2022-12-16T08:45:55;79.15;;;26.52;;
43744;SDS011;29359;53.048;8.732;2022-12-16T08:48:15;80.97;;;27.35;;
43744;SDS011;29359;53.048;8.732;2022-12-16T08:50:35;79.15;;;25.85;;
43744;SDS011;29359;53.048;8.732;2022-12-16T08:53:15;86.35;;;26.92;;
43744;SDS011;29359;53.048;8.732;2022-12-16T08:55:35;89.15;;;28.85;;
43744;SDS011;29359;53.048;8.732;2022-12-16T08:57:56;94.80;;;28.75;;
43744;SDS011;29359;53.048;8.732;2022-12-16T09:00:16;92.30;;;28.52;;
43744;SDS011;29359;53.048;8.732;2022-12-16T09:02:36;90.03;;;30.77;;
43744;SDS011;29359;53.048;8.732;2022-12-16T09:04:56;81.13;;;26.98;;
43744;SDS011;29359;53.048;8.732;2022-12-16T09:07:16;96.07;;;27.77;;
43744;SDS011;29359;53.048;8.732;2022-12-16T09:09:37;94.55;;;28.92;;
43744;SDS011;29359;53.048;8.732;2022-12-16T09:11:57;90.95;;;29.08;;
43744;SDS011;29359;53.048;8.732;2022-12-16T09:14:16;93.80;;;29.25;;
43744;SDS011;29359;53.048;8.732;2022-12-16T09:16:37;92.47;;;28.83;;
43744;SDS011;29359;53.048;8.732;2022-12-16T09:18:56;81.63;;;28.02;;
43744;SDS011;29359;53.048;8.732;2022-12-16T09:21:16;89.20;;;28.40;;
43744;SDS011;29359;53.048;8.732;2022-12-16T09:23:37;84.57;;;27.20;;
43744;SDS011;29359;53.048;8.732;2022-12-16T09:25:56;85.70;;;29.85;;
43744;SDS011;29359;53.048;8.732;2022-12-16T09:28:16;87.47;;;28.20;;
43744;SDS011;29359;53.048;8.732;2022-12-16T09:30:36;87.70;;;28.23;;
43744;SDS011;29359;53.048;8.732;2022-12-16T09:32:56;81.95;;;27.65;;
43744;SDS011;29359;53.048;8.732;2022-12-16T09:35:16;79.85;;;26.45;;
43744;SDS011;29359;53.048;8.732;2022-12-16T09:37:36;79.20;;;27.33;;
43744;SDS011;29359;53.048;8.732;2022-12-16T09:39:56;75.22;;;27.08;;
43744;SDS011;29359;53.048;8.732;2022-12-16T09:50:41;73.18;;;25.88;;
43744;SDS011;29359;53.048;8.732;2022-12-16T09:53:03;72.25;;;25.80;;
43744;SDS011;29359;53.048;8.732;2022-12-16T09:55:31;65.28;;;25.30;;
43744;SDS011;29359;53.048;8.732;2022-12-16T09:57:54;63.05;;;24.17;;
43744;SDS011;29359;53.048;8.732;2022-12-16T10:00:18;70.13;;;24.58;;
43744;SDS011;29359;53.048;8.732;2022-12-16T10:02:41;64.05;;;24.55;;
43744;SDS011;29359;53.048;8.732;2022-12-16T10:05:11;57.58;;;22.60;;
43744;SDS011;29359;53.048;8.732;2022-12-16T10:07:34;55.15;;;22.50;;
43744;SDS011;29359;53.048;8.732;2022-12-16T10:18:01;47.55;;;22.05;;
43744;SDS011;29359;53.048;8.732;2022-12-16T10:20:39;68.45;;;32.08;;
43744;SDS011;29359;53.048;8.732;2022-12-16T10:23:20;56.17;;;23.75;;
43744;SDS011;29359;53.048;8.732;2022-12-16T10:31:13;43.25;;;20.73;;
43744;SDS011;29359;53.048;8.732;2022-12-16T10:33:35;55.72;;;24.05;;
43744;SDS011;29359;53.048;8.732;2022-12-16T10:35:56;45.30;;;20.00;;
43744;SDS011;29359;53.048;8.732;2022-12-16T10:38:20;36.25;;;18.63;;
43744;SDS011;29359;53.048;8.732;2022-12-16T10:40:44;28.38;;;14.85;;
43744;SDS011;29359;53.048;8.732;2022-12-16T10:43:06;37.53;;;18.15;;
43744;SDS011;29359;53.048;8.732;2022-12-16T10:45:39;44.75;;;20.10;;
43744;SDS011;29359;53.048;8.732;2022-12-16T10:48:03;41.67;;;18.67;;
43744;SDS011;29359;53.048;8.732;2022-12-16T10:50:23;43.95;;;18.15;;
43744;SDS011;29359;53.048;8.732;2022-12-16T10:52:43;38.35;;;17.60;;
43744;SDS011;29359;53.048;8.732;2022-12-16T10:55:21;42.10;;;18.23;;
43744;SDS011;29359;53.048;8.732;2022-12-16T10:58:14;39.33;;;18.98;;
43744;SDS011;29359;53.048;8.732;2022-12-16T11:03:39;36.33;;;18.85;;
43744;SDS011;29359;53.048;8.732;2022-12-16T11:05:54;32.78;;;17.23;;
43744;SDS011;29359;53.048;8.732;2022-12-16T11:08:30;37.72;;;16.73;;
43744;SDS011;29359;53.048;8.732;2022-12-16T11:10:53;29.70;;;15.55;;
43744;SDS011;29359;53.048;8.732;2022-12-16T11:13:20;35.28;;;16.48;;
43744;SDS011;29359;53.048;8.732;2022-12-16T11:15:42;33.08;;;19.17;;
43744;SDS011;29359;53.048;8.732;2022-12-16T11:18:04;36.83;;;17.92;;
43744;SDS011;29359;53.048;8.732;2022-12-16T11:20:28;38.53;;;19.08;;
43744;SDS011;29359;53.048;8.732;2022-12-16T11:22:48;36.28;;;19.48;;
43744;SDS011;29359;53.048;8.732;2022-12-16T11:25:26;35.28;;;18.35;;
43744;SDS011;29359;53.048;8.732;2022-12-16T11:27:47;38.38;;;19.75;;
43744;SDS011;29359;53.048;8.732;2022-12-16T11:30:22;37.50;;;19.00;;
43744;SDS011;29359;53.048;8.732;2022-12-16T11:32:52;35.42;;;18.45;;
43744;SDS011;29359;53.048;8.732;2022-12-16T11:35:17;40.33;;;19.60;;
43744;SDS011;29359;53.048;8.732;2022-12-16T11:37:39;35.42;;;18.95;;
43744;SDS011;29359;53.048;8.732;2022-12-16T11:40:01;38.53;;;19.13;;
43744;SDS011;29359;53.048;8.732;2022-12-16T11:42:23;41.08;;;19.65;;
43744;SDS011;29359;53.048;8.732;2022-12-16T11:44:52;39.85;;;19.65;;
43744;SDS011;29359;53.048;8.732;2022-12-16T11:49:52;35.42;;;18.92;;
43744;SDS011;29359;53.048;8.732;2022-12-16T11:52:23;31.27;;;18.20;;
43744;SDS011;29359;53.048;8.732;2022-12-16T11:54:58;37.38;;;19.02;;
43744;SDS011;29359;53.048;8.732;2022-12-16T11:57:56;41.38;;;20.42;;
43744;SDS011;29359;53.048;8.732;2022-12-16T12:00:24;38.63;;;18.75;;
43744;SDS011;29359;53.048;8.732;2022-12-16T12:02:49;35.90;;;18.73;;
43744;SDS011;29359;53.048;8.732;2022-12-16T12:05:32;39.78;;;19.48;;
43744;SDS011;29359;53.048;8.732;2022-12-16T12:07:59;34.97;;;17.30;;
43744;SDS011;29359;53.048;8.732;2022-12-16T12:13:07;46.28;;;23.73;;
43744;SDS011;29359;53.048;8.732;2022-12-16T12:15:54;27.98;;;15.15;;
43744;SDS011;29359;53.048;8.732;2022-12-16T12:18:28;26.10;;;15.02;;
43744;SDS011;29359;53.048;8.732;2022-12-16T12:21:12;28.02;;;15.77;;
43744;SDS011;29359;53.048;8.732;2022-12-16T12:26:22;29.88;;;17.08;;
43744;SDS011;29359;53.048;8.732;2022-12-16T12:34:03;26.00;;;15.93;;
43744;SDS011;29359;53.048;8.732;2022-12-16T12:36:50;34.80;;;16.02;;
43744;SDS011;29359;53.048;8.732;2022-12-16T12:39:59;26.65;;;15.18;;
43744;SDS011;29359;53.048;8.732;2022-12-16T12:42:33;32.20;;;16.20;;
43744;SDS011;29359;53.048;8.732;2022-12-16T12:50:48;36.90;;;15.98;;
43744;SDS011;29359;53.048;8.732;2022-12-16T12:58:09;38.50;;;17.75;;
43744;SDS011;29359;53.048;8.732;2022-12-16T13:00:31;29.90;;;16.90;;
43744;SDS011;29359;53.048;8.732;2022-12-16T13:05:48;34.80;;;18.40;;
43744;SDS011;29359;53.048;8.732;2022-12-16T13:11:12;35.95;;;18.70;;
43744;SDS011;29359;53.048;8.732;2022-12-16T13:13:35;34.17;;;17.48;;
43744;SDS011;29359;53.048;8.732;2022-12-16T13:15:55;36.88;;;19.00;;
43744;SDS011;29359;53.048;8.732;2022-12-16T13:18:19;36.58;;;18.92;;
43744;SDS011;29359;53.048;8.732;2022-12-16T13:20:39;36.67;;;18.88;;
43744;SDS011;29359;53.048;8.732;2022-12-16T13:22:59;45.13;;;18.75;;
43744;SDS011;29359;53.048;8.732;2022-12-16T13:25:56;35.78;;;16.85;;
43744;SDS011;29359;53.048;8.732;2022-12-16T13:28:34;36.55;;;17.95;;
43744;SDS011;29359;53.048;8.732;2022-12-16T13:31:01;28.25;;;17.38;;
43744;SDS011;29359;53.048;8.732;2022-12-16T13:33:27;31.80;;;18.13;;
43744;SDS011;29359;53.048;8.732;2022-12-16T13:35:55;28.52;;;17.23;;
43744;SDS011;29359;53.048;8.732;2022-12-16T13:40:56;28.58;;;16.88;;
43744;SDS011;29359;53.048;8.732;2022-12-16T13:46:14;28.88;;;16.52;;
43744;SDS011;29359;53.048;8.732;2022-12-16T13:48:39;26.55;;;16.35;;
43744;SDS011;29359;53.048;8.732;2022-12-16T13:53:55;34.80;;;19.67;;
43744;SDS011;29359;53.048;8.732;2022-12-16T13:56:25;28.60;;;18.38;;
43744;SDS011;29359;53.048;8.732;2022-12-16T13:58:52;30.10;;;17.02;;
43744;SDS011;29359;53.048;8.732;2022-12-16T14:01:21;30.15;;;16.95;;
43744;SDS011;29359;53.048;8.732;2022-12-16T14:04:07;28.25;;;17.25;;
43744;SDS011;29359;53.048;8.732;2022-12-16T14:06:29;26.70;;;17.05;;
43744;SDS011;29359;53.048;8.732;2022-12-16T14:08:50;29.60;;;17.77;;
43744;SDS011;29359;53.048;8.732;2022-12-16T14:11:21;30.10;;;17.25;;
43744;SDS011;29359;53.048;8.732;2022-12-16T14:14:16;30.08;;;16.85;;
43744;SDS011;29359;53.048;8.732;2022-12-16T14:16:51;26.77;;;17.17;;
43744;SDS011;29359;53.048;8.732;2022-12-16T14:24:31;30.90;;;17.73;;
43744;SDS011;29359;53.048;8.732;2022-12-16T14:26:51;26.92;;;17.83;;
43744;SDS011;29359;53.048;8.732;2022-12-16T14:29:20;29.13;;;17.63;;
43744;SDS011;29359;53.048;8.732;2022-12-16T14:31:45;27.38;;;17.08;;
43744;SDS011;29359;53.048;8.732;2022-12-16T14:34:11;26.77;;;16.85;;
43744;SDS011;29359;53.048;8.732;2022-12-16T14:38:57;27.42;;;16.38;;
43744;SDS011;29359;53.048;8.732;2022-12-16T14:41:21;30.13;;;18.33;;
43744;SDS011;29359;53.048;8.732;2022-12-16T14:43:42;32.45;;;18.92;;
43744;SDS011;29359;53.048;8.732;2022-12-16T14:46:02;33.33;;;18.70;;
43744;SDS011;29359;53.048;8.732;2022-12-16T14:48:25;33.08;;;19.05;;
43744;SDS011;29359;53.048;8.732;2022-12-16T14:50:56;31.73;;;18.65;;
43744;SDS011;29359;53.048;8.732;2022-12-16T14:53:17;34.95;;;20.15;;
43744;SDS011;29359;53.048;8.732;2022-12-16T14:55:42;31.77;;;20.83;;